Terminal Aerodrome Forecast
Issued by NWS Lake Charles, LA

Home | Current Version | Previous Version | Text Only | Print | Product List | Glossary On
Versions: 1 2 3 4 5 6 7 8 9 10 11 12 13 14 15 16 17 18
000
FTUS44 KLCH 230520
TAFLCH
TAF
KLCH 230520Z 2306/2406 07008KT P6SM FEW023
     FM231000 11004KT P6SM SCT025 BKN250
     FM231200 09006KT P6SM SCT013 BKN020
     FM231500 12010KT P6SM VCTS SCT016 BKN025CB
      TEMPO 2318/2322 VRB12G17KT 3SM -TSRA SCT025 BKN035CB
     FM240000 14009KT P6SM SCT045 OVC080=

USA.gov is the U.S. government's official web portal to all federal, state and local government web resources and services.